Time;durP1;ratioP1;P1;durP2;ratioP2;P2;SDS_P1;SDS_P2;PMS_P1;PMS_P2;Temp;Humidity;BMP_temperature;BMP_pressure;BME280_temperature;BME280_humidity;BME280_pressure;Samples;Min_cycle;Max_cycle;Signal;HPM_P1;HPM_P2
2022/03/22 00:00:30;;;;;;;11.20;6.63;;;;;;;10.66;81.63;101389.88;5031103;28;20029;-79
2022/03/22 00:02:56;;;;;;;12.73;6.70;;;;;;;10.61;81.94;101384.31;4991950;28;20044;-79
2022/03/22 00:05:21;;;;;;;11.25;6.43;;;;;;;10.60;81.65;101382.66;5016935;28;20029;-78
2022/03/22 00:07:47;;;;;;;10.73;6.68;;;;;;;10.55;81.20;101386.22;5048661;28;20075;-78
2022/03/22 00:10:14;;;;;;;12.63;6.97;;;;;;;10.54;81.87;101392.06;5014117;28;20091;-78
2022/03/22 00:12:40;;;;;;;11.13;7.13;;;;;;;10.51;81.62;101388.72;5025493;28;20370;-78
2022/03/22 00:15:06;;;;;;;10.63;6.72;;;;;;;10.46;81.31;101385.94;5027805;28;20030;-79
2022/03/22 00:17:31;;;;;;;10.00;7.13;;;;;;;10.45;81.90;101389.81;4992550;28;20041;-79
2022/03/22 00:19:57;;;;;;;10.27;7.05;;;;;;;10.42;81.80;101392.28;5001864;28;20033;-79
2022/03/22 00:22:24;;;;;;;10.07;7.03;;;;;;;10.39;82.04;101384.50;5014914;28;20026;-79
2022/03/22 00:24:50;;;;;;;13.60;8.32;;;;;;;10.35;81.82;101387.00;5023040;28;20030;-80
2022/03/22 00:27:15;;;;;;;12.95;6.97;;;;;;;10.33;81.65;101386.41;5004887;28;20025;-78
2022/03/22 00:29:41;;;;;;;13.30;7.97;;;;;;;10.28;81.81;101389.19;5013291;28;20033;-78
2022/03/22 00:32:08;;;;;;;10.77;7.68;;;;;;;10.27;81.51;101380.00;5038960;28;20041;-78
2022/03/22 00:34:34;;;;;;;13.65;8.73;;;;;;;10.19;81.46;101396.31;5039073;28;20112;-78
2022/03/22 00:37:00;;;;;;;13.60;8.57;;;;;;;10.20;81.84;101389.69;5037921;28;20483;-78
2022/03/22 00:39:26;;;;;;;15.63;8.48;;;;;;;10.15;81.85;101395.22;5038561;28;20025;-78
2022/03/22 00:41:53;;;;;;;13.48;8.93;;;;;;;10.12;81.88;101395.75;5018683;28;20037;-77
2022/03/22 00:44:19;;;;;;;11.98;7.75;;;;;;;10.09;81.66;101401.84;5038813;28;20525;-78
2022/03/22 00:46:44;;;;;;;14.68;8.52;;;;;;;10.05;81.41;101407.06;5020910;28;20128;-78
2022/03/22 00:49:10;;;;;;;14.00;9.13;;;;;;;10.02;81.78;101393.72;4985436;28;20022;-77
2022/03/22 00:51:35;;;;;;;14.57;9.20;;;;;;;9.98;81.69;101398.16;5003603;28;20623;-78
2022/03/22 00:54:03;;;;;;;14.38;8.85;;;;;;;9.99;81.92;101395.09;4997484;28;20085;-78
2022/03/22 00:56:31;;;;;;;13.25;8.90;;;;;;;9.91;81.71;101400.34;5015916;28;20509;-79
2022/03/22 01:01:40;;;;;;;18.20;10.10;;;;;;;9.86;82.56;101398.34;5018058;28;20048;-80
2022/03/22 01:04:06;;;;;;;12.32;8.70;;;;;;;9.85;82.44;101396.69;5038760;28;20017;-79
2022/03/22 01:06:33;;;;;;;11.70;8.98;;;;;;;9.80;82.35;101389.16;5038374;28;20485;-79
2022/03/22 01:08:59;;;;;;;13.90;9.57;;;;;;;9.77;82.52;101388.88;5056606;28;20047;-79
2022/03/22 01:11:25;;;;;;;14.25;8.52;;;;;;;9.76;82.18;101390.81;5036461;28;20035;-79
2022/03/22 01:13:50;;;;;;;15.50;9.40;;;;;;;9.74;82.27;101389.41;5023101;28;20033;-79
2022/03/22 01:16:16;;;;;;;17.08;10.68;;;;;;;9.71;82.68;101390.78;5022514;28;20079;-78
2022/03/22 01:18:42;;;;;;;13.88;9.52;;;;;;;9.66;82.30;101390.72;5022096;28;20082;-81
2022/03/22 01:21:08;;;;;;;13.07;9.18;;;;;;;9.63;82.41;101394.88;5026068;28;20029;-81
2022/03/22 01:23:33;;;;;;;16.52;9.70;;;;;;;9.60;82.47;101389.84;5023970;28;20481;-79
2022/03/22 01:25:59;;;;;;;13.70;9.63;;;;;;;9.58;82.58;101397.63;5022365;28;20048;-79
2022/03/22 01:28:25;;;;;;;16.33;10.70;;;;;;;9.55;82.91;101389.81;5037504;28;20025;-79
2022/03/22 01:30:53;;;;;;;16.15;10.30;;;;;;;9.52;82.77;101386.75;5056527;28;20036;-78
2022/03/22 01:33:19;;;;;;;16.40;10.02;;;;;;;9.51;82.70;101390.63;5039030;28;20036;-78
2022/03/22 01:35:44;;;;;;;15.70;10.43;;;;;;;9.47;82.74;101383.94;5056657;28;20108;-78
2022/03/22 01:38:10;;;;;;;16.30;10.50;;;;;;;9.46;82.92;101388.66;5020268;28;20033;-78
2022/03/22 01:40:36;;;;;;;18.10;10.10;;;;;;;9.41;82.74;101377.50;5038665;28;20029;-78
2022/03/22 01:43:01;;;;;;;19.27;10.55;;;;;;;9.39;83.17;101382.50;5036490;28;20025;-78
2022/03/22 01:45:28;;;;;;;17.80;10.45;;;;;;;9.34;83.12;101379.69;5040619;28;20017;-79
2022/03/22 01:47:59;;;;;;;17.50;11.13;;;;;;;9.33;82.95;101383.53;5042062;28;20029;-78
2022/03/22 01:50:24;;;;;;;16.98;10.73;;;;;;;9.28;82.98;101381.59;5038814;28;20052;-77
2022/03/22 01:52:50;;;;;;;17.25;10.68;;;;;;;9.25;83.12;101373.78;5037709;28;20025;-77
2022/03/22 01:55:17;;;;;;;18.45;11.05;;;;;;;9.22;83.01;101373.47;5020433;28;20379;-78
2022/03/22 01:57:43;;;;;;;16.10;10.65;;;;;;;9.25;83.02;101375.72;5018347;28;20029;-77
2022/03/22 02:00:11;;;;;;;16.70;11.00;;;;;;;9.17;82.74;101371.50;5022027;28;20385;-77
2022/03/22 02:08:08;;;;;;;21.33;12.68;;;;;;;9.02;82.72;101372.19;5004225;28;20025;-78
2022/03/22 02:10:34;;;;;;;18.08;11.48;;;;;;;9.05;82.75;101371.66;5020178;28;20526;-79
2022/03/22 02:13:00;;;;;;;17.67;10.93;;;;;;;9.05;82.80;101366.13;5021607;28;20385;-78
2022/03/22 02:15:26;;;;;;;17.95;11.38;;;;;;;8.99;82.78;101369.94;4999186;28;20030;-79
2022/03/22 02:17:51;;;;;;;17.90;12.00;;;;;;;8.97;82.93;101379.59;4983085;28;20160;-78
2022/03/22 02:20:18;;;;;;;20.60;11.98;;;;;;;8.95;83.03;101377.94;5001575;28;20075;-78
2022/03/22 02:23:00;;;;;;;17.23;11.68;;;;;;;8.88;83.08;101373.72;5017892;28;20052;-78
2022/03/22 02:25:26;;;;;;;18.35;12.07;;;;;;;8.89;82.89;101367.09;5000337;28;20034;-78
2022/03/22 02:27:54;;;;;;;19.83;12.73;;;;;;;8.83;83.05;101363.44;4998750;28;20034;-79
2022/03/22 02:30:20;;;;;;;17.77;12.13;;;;;;;8.81;83.14;101373.09;4977230;28;20034;-80
2022/03/22 02:32:53;;;;;;;18.67;11.80;;;;;;;8.77;83.10;101367.22;4982413;28;20101;-78
2022/03/22 02:35:19;;;;;;;21.17;12.15;;;;;;;8.76;82.96;101361.97;5018532;28;20120;-78
2022/03/22 02:37:45;;;;;;;19.45;12.75;;;;;;;8.76;82.83;101367.50;5005376;28;20411;-79
2022/03/22 02:40:13;;;;;;;20.33;12.25;;;;;;;8.75;82.90;101371.34;5036269;28;20053;-78
2022/03/22 02:42:44;;;;;;;19.58;11.90;;;;;;;8.71;82.82;101371.03;5018018;28;20029;-78
2022/03/22 02:45:11;;;;;;;17.00;11.48;;;;;;;8.68;82.97;101371.56;5017143;28;20026;-77
2022/03/22 02:47:38;;;;;;;19.63;12.55;;;;;;;8.65;83.03;101367.38;5017589;28;20079;-79
2022/03/22 02:50:05;;;;;;;21.48;12.40;;;;;;;8.64;83.21;101371.25;5000598;28;20025;-79
2022/03/22 02:52:30;;;;;;;20.33;12.50;;;;;;;8.61;82.95;101362.63;5017410;28;20018;-78
2022/03/22 02:54:57;;;;;;;17.77;12.18;;;;;;;8.58;83.05;101361.22;5035318;28;20026;-78
2022/03/22 02:57:23;;;;;;;21.33;12.27;;;;;;;8.56;83.21;101357.88;4985250;28;20060;-77
2022/03/22 02:59:48;;;;;;;20.00;12.10;;;;;;;8.54;82.85;101364.78;5001032;28;20060;-76
2022/03/22 03:02:13;;;;;;;22.95;13.45;;;;;;;8.51;83.06;101363.34;5020058;28;20476;-77
2022/03/22 03:04:39;;;;;;;20.75;13.38;;;;;;;8.48;82.85;101373.00;5019651;28;20029;-77
2022/03/22 03:07:04;;;;;;;17.15;12.18;;;;;;;8.48;82.95;101367.47;5034696;28;20041;-77
2022/03/22 03:09:30;;;;;;;18.13;12.60;;;;;;;8.46;83.05;101358.59;5014681;28;20470;-77
2022/03/22 03:11:55;;;;;;;21.35;12.50;;;;;;;8.40;82.89;101361.56;5017223;28;20025;-77
2022/03/22 03:14:39;;;;;;;18.83;12.50;;;;;;;8.42;82.62;101368.53;5034988;28;20022;-77
2022/03/22 03:17:09;;;;;;;19.55;12.73;;;;;;;8.38;82.86;101366.47;5000793;28;20030;-77
2022/03/22 03:19:35;;;;;;;20.15;12.57;;;;;;;8.38;82.35;101367.31;5034482;28;20033;-77
2022/03/22 03:22:02;;;;;;;18.85;12.50;;;;;;;8.37;82.13;101367.59;5025610;28;20031;-77
2022/03/22 03:24:27;;;;;;;19.17;12.65;;;;;;;8.33;82.08;101370.03;5000641;28;20060;-77
2022/03/22 03:26:53;;;;;;;18.85;12.13;;;;;;;8.33;81.68;101358.13;5019069;28;20030;-77
2022/03/22 03:29:18;;;;;;;18.63;12.27;;;;;;;8.30;81.65;101370.53;5004958;28;20030;-78
2022/03/22 03:31:44;;;;;;;17.27;12.02;;;;;;;8.28;81.43;101372.75;5038842;28;20022;-77
2022/03/22 03:34:10;;;;;;;19.23;12.25;;;;;;;8.24;81.66;101364.09;5039792;28;20040;-77
2022/03/22 03:36:35;;;;;;;24.60;13.25;;;;;;;8.20;81.66;101368.50;5040047;28;20087;-77
2022/03/22 03:39:03;;;;;;;20.20;12.95;;;;;;;8.16;81.88;101366.47;5039800;28;20037;-77
2022/03/22 03:47:11;;;;;;;21.33;13.13;;;;;;;8.12;81.93;101379.19;5022363;28;20097;-77
2022/03/22 03:49:47;;;;;;;20.98;12.15;;;;;;;8.09;82.01;101363.91;5037167;28;20474;-78
2022/03/22 03:52:19;;;;;;;17.83;12.38;;;;;;;8.05;81.78;101362.75;5020367;28;20079;-78
2022/03/22 03:54:45;;;;;;;20.67;12.52;;;;;;;7.99;81.96;101370.13;5039325;28;20037;-78
2022/03/22 03:57:11;;;;;;;17.98;12.70;;;;;;;7.99;82.09;101370.13;5006081;28;20022;-78
2022/03/22 03:59:37;;;;;;;18.73;12.23;;;;;;;7.96;81.57;101358.75;5039573;28;20427;-76
2022/03/22 04:02:03;;;;;;;21.55;13.27;;;;;;;7.94;81.89;101358.16;5027391;28;20068;-77
2022/03/22 04:04:29;;;;;;;16.40;11.90;;;;;;;7.93;81.84;101370.34;5028635;28;20374;-77
2022/03/22 04:06:55;;;;;;;17.85;12.63;;;;;;;7.91;81.54;101370.59;5015668;28;20034;-76
2022/03/22 04:09:20;;;;;;;21.92;12.77;;;;;;;7.86;81.63;101367.78;5050760;28;20028;-77
2022/03/22 04:11:46;;;;;;;22.42;13.00;;;;;;;7.82;81.66;101370.19;5013438;28;20034;-77
2022/03/22 04:14:12;;;;;;;18.27;12.98;;;;;;;7.79;81.75;101364.34;5033762;28;20025;-77
2022/03/22 04:16:37;;;;;;;18.50;12.20;;;;;;;7.80;81.57;101366.84;5051148;28;20028;-78
2022/03/22 04:19:07;;;;;;;21.48;12.98;;;;;;;7.77;81.71;101372.91;5037798;28;20025;-77
2022/03/22 04:21:34;;;;;;;21.88;12.98;;;;;;;7.73;81.39;101371.72;5027778;28;20049;-77
2022/03/22 04:24:02;;;;;;;18.50;12.57;;;;;;;7.74;81.52;101369.78;5029463;28;20502;-77
2022/03/22 04:26:27;;;;;;;18.30;12.70;;;;;;;7.71;81.10;101379.44;5031053;28;20478;-77
2022/03/22 04:32:41;;;;;;;20.98;12.43;;;;;;;7.63;81.64;101371.56;5019971;28;20104;-77
2022/03/22 04:34:40;;;;;;;;;;;;;;;7.60;81.48;101366.53;5033646;28;20113;-77
2022/03/22 04:37:06;;;;;;;21.40;13.25;;;;;;;7.60;81.52;101377.59;5047478;28;19916;-77
2022/03/22 04:39:33;;;;;;;18.17;12.20;;;;;;;7.58;81.33;101369.56;5016787;28;20046;-77
2022/03/22 04:41:59;;;;;;;19.77;12.65;;;;;;;7.54;81.38;101362.03;5037405;28;20038;-77
2022/03/22 04:44:26;;;;;;;21.80;13.25;;;;;;;7.49;80.69;101368.31;5040891;28;20032;-78
2022/03/22 04:46:52;;;;;;;25.23;12.60;;;;;;;7.50;80.81;101367.22;5019780;28;20040;-77
2022/03/22 04:49:17;;;;;;;20.60;12.73;;;;;;;7.48;80.46;101368.56;5018918;28;20036;-77
2022/03/22 04:57:11;;;;;;;17.60;11.73;;;;;;;7.36;79.84;101363.97;5023989;28;20036;-78
2022/03/22 04:59:37;;;;;;;21.63;12.43;;;;;;;7.36;79.52;101376.97;5022080;28;20036;-78
2022/03/22 05:02:02;;;;;;;21.23;12.40;;;;;;;7.32;79.72;101370.25;5000351;28;20087;-78
2022/03/22 05:04:28;;;;;;;19.58;11.90;;;;;;;7.28;78.80;101369.91;5017250;28;20036;-77
2022/03/22 05:06:54;;;;;;;20.25;12.65;;;;;;;7.24;79.53;101374.25;5019440;28;20029;-77
2022/03/22 05:09:19;;;;;;;20.58;12.35;;;;;;;7.25;79.27;101381.47;5021985;28;20393;-77
2022/03/22 05:11:45;;;;;;;21.13;12.77;;;;;;;7.22;79.30;101375.63;5005630;28;20033;-77
2022/03/22 05:14:11;;;;;;;20.85;13.02;;;;;;;7.20;79.92;101378.63;5033126;28;20033;-77
2022/03/22 05:16:36;;;;;;;19.95;12.18;;;;;;;7.17;79.62;101379.13;5004964;28;20040;-77
2022/03/22 05:19:04;;;;;;;19.80;12.77;;;;;;;7.18;79.69;101379.97;5039482;28;20071;-77
2022/03/22 05:21:29;;;;;;;19.00;12.43;;;;;;;7.16;79.54;101383.00;5046984;28;20060;-77
2022/03/22 05:23:54;;;;;;;19.77;13.15;;;;;;;7.13;79.48;101391.75;5018386;28;20028;-78
2022/03/22 05:26:20;;;;;;;22.92;12.50;;;;;;;7.12;79.82;101392.84;5048736;28;20033;-76
2022/03/22 05:28:45;;;;;;;22.40;13.02;;;;;;;7.09;79.42;101387.81;5022332;28;20401;-76
2022/03/22 05:31:12;;;;;;;20.27;12.40;;;;;;;7.09;79.62;101393.34;4996603;28;20037;-76
2022/03/22 05:33:41;;;;;;;20.33;12.55;;;;;;;7.07;79.47;101390.00;5006700;28;20030;-76
2022/03/22 05:36:07;;;;;;;23.75;13.90;;;;;;;7.07;79.59;101384.47;5048385;28;20048;-76
2022/03/22 05:38:32;;;;;;;18.50;12.30;;;;;;;7.06;79.49;101386.41;5044419;28;20033;-76
2022/03/22 05:40:58;;;;;;;20.65;12.93;;;;;;;7.02;79.16;101393.53;4997061;28;20036;-76
2022/03/22 05:43:26;;;;;;;20.77;12.38;;;;;;;7.05;78.92;101400.44;5032545;28;20432;-76
2022/03/22 05:45:51;;;;;;;16.77;11.98;;;;;;;7.00;79.09;101395.69;5022633;28;20063;-76
2022/03/22 05:48:20;;;;;;;19.25;12.20;;;;;;;7.01;78.60;101393.75;5022639;28;20025;-76
2022/03/22 05:50:46;;;;;;;22.10;12.68;;;;;;;6.99;78.35;101395.91;5035390;28;20061;-78
2022/03/22 05:53:12;;;;;;;20.52;11.77;;;;;;;6.98;78.54;101391.50;4996680;28;20026;-77
2022/03/22 05:55:38;;;;;;;18.77;11.90;;;;;;;6.99;78.26;101395.91;5030040;28;20033;-78
2022/03/22 05:58:04;;;;;;;21.10;12.60;;;;;;;6.96;77.49;101393.66;5030086;28;20033;-77
2022/03/22 06:00:29;;;;;;;24.08;11.70;;;;;;;6.93;77.04;101395.00;5032649;28;20033;-78
2022/03/22 06:02:55;;;;;;;20.63;12.05;;;;;;;6.92;77.04;101405.19;5021698;28;20037;-77
2022/03/22 06:05:21;;;;;;;18.50;11.55;;;;;;;6.92;76.85;101405.19;5017435;28;20029;-77
2022/03/22 06:07:46;;;;;;;21.58;12.27;;;;;;;6.92;76.69;101409.91;4975270;28;20037;-77
2022/03/22 06:10:12;;;;;;;19.55;12.77;;;;;;;6.88;76.73;101415.09;5038026;28;20116;-78
2022/03/22 06:12:42;;;;;;;19.40;11.73;;;;;;;6.88;75.40;101415.09;5016102;28;20112;-75
2022/03/22 06:15:18;;;;;;;19.48;11.98;;;;;;;6.89;76.26;101416.75;4991336;28;20037;-74
2022/03/22 06:17:47;;;;;;;18.38;12.30;;;;;;;6.87;76.10;101413.38;4988516;28;20136;-74
2022/03/22 06:20:14;;;;;;;19.42;11.65;;;;;;;6.86;75.80;101416.41;5018487;28;20045;-75
2022/03/22 06:22:39;;;;;;;19.08;11.55;;;;;;;6.85;76.20;101421.09;5000588;28;20030;-75
2022/03/22 06:25:05;;;;;;;24.27;12.45;;;;;;;6.88;75.66;101420.59;5004071;28;20036;-75
2022/03/22 06:27:33;;;;;;;19.25;11.50;;;;;;;6.87;75.02;101418.91;5008235;28;20037;-75
2022/03/22 06:29:59;;;;;;;20.13;11.88;;;;;;;6.89;75.55;101425.03;4999096;28;20038;-75
2022/03/22 06:32:25;;;;;;;18.08;11.20;;;;;;;6.94;74.90;101427.91;5000673;28;20041;-74
2022/03/22 06:34:52;;;;;;;18.77;12.60;;;;;;;6.93;75.25;101426.19;4979191;28;20025;-74
2022/03/22 06:37:17;;;;;;;20.73;11.30;;;;;;;7.02;73.77;101432.19;5003670;28;20041;-74
2022/03/22 06:39:43;;;;;;;20.02;11.35;;;;;;;7.06;73.21;101438.03;4984452;28;20084;-75
2022/03/22 06:42:08;;;;;;;22.25;11.77;;;;;;;7.09;73.60;101432.84;5034740;28;20055;-74
2022/03/22 06:44:37;;;;;;;19.15;12.00;;;;;;;7.12;72.21;101426.81;5003895;28;20041;-74
2022/03/22 06:47:04;;;;;;;22.20;11.48;;;;;;;7.20;72.81;101441.34;5037417;28;20037;-74
2022/03/22 06:49:29;;;;;;;19.80;11.00;;;;;;;7.23;72.38;101435.31;4987674;28;20109;-74
2022/03/22 06:51:58;;;;;;;17.50;11.93;;;;;;;7.28;70.85;101441.75;5023088;28;20021;-75
2022/03/22 06:54:23;;;;;;;16.17;11.00;;;;;;;7.32;71.60;101439.31;5018923;28;20030;-75
2022/03/22 06:56:49;;;;;;;16.77;10.95;;;;;;;7.37;71.73;101439.41;4989527;28;20034;-75
2022/03/22 06:59:15;;;;;;;17.17;10.77;;;;;;;7.44;70.65;101442.88;5037518;28;20401;-75
2022/03/22 07:01:41;;;;;;;21.50;11.27;;;;;;;7.49;70.55;101447.63;5039950;28;20148;-75
2022/03/22 07:04:07;;;;;;;19.42;11.30;;;;;;;7.56;70.77;101445.56;5012235;28;20033;-75
2022/03/22 07:06:32;;;;;;;20.00;11.25;;;;;;;7.64;69.38;101444.31;5006024;28;20033;-75
2022/03/22 07:08:58;;;;;;;15.00;10.43;;;;;;;7.69;69.51;101450.75;5012242;28;20060;-76
2022/03/22 07:14:07;;;;;;;16.63;10.93;;;;;;;7.90;69.39;101456.59;5019688;28;20080;-79
2022/03/22 07:16:33;;;;;;;18.30;10.63;;;;;;;8.01;68.32;101450.13;4998537;28;20029;-80
2022/03/22 07:18:58;;;;;;;18.17;10.55;;;;;;;8.11;69.09;101461.34;5031569;28;20040;-80
2022/03/22 07:21:23;;;;;;;16.23;10.82;;;;;;;8.18;68.99;101450.09;5007272;28;20094;-79
2022/03/22 07:23:49;;;;;;;17.58;10.35;;;;;;;8.29;67.92;101447.19;4997960;28;20501;-73
2022/03/22 07:26:16;;;;;;;19.48;10.45;;;;;;;8.43;66.64;101463.47;5011087;28;20087;-73
2022/03/22 07:28:42;;;;;;;18.17;10.23;;;;;;;8.50;66.69;101453.06;4993469;28;20030;-73
2022/03/22 07:31:07;;;;;;;15.32;10.20;;;;;;;8.61;65.42;101451.22;4999868;28;20041;-75
2022/03/22 07:33:33;;;;;;;15.65;10.05;;;;;;;8.71;65.44;101463.25;4998218;28;20045;-77
2022/03/22 07:35:58;;;;;;;18.85;10.00;;;;;;;8.85;65.21;101452.63;5017564;28;20025;-77
2022/03/22 07:38:24;;;;;;;13.77;9.45;;;;;;;8.95;65.16;101463.00;4992790;28;20030;-74
2022/03/22 07:40:49;;;;;;;15.55;9.30;;;;;;;9.10;64.12;101460.38;5030556;28;20153;-75
2022/03/22 07:43:15;;;;;;;19.00;10.95;;;;;;;9.26;62.41;101457.78;5018963;28;20034;-75
2022/03/22 07:45:40;;;;;;;16.88;10.27;;;;;;;9.37;62.07;101454.84;5004008;28;20479;-75
2022/03/22 07:48:06;;;;;;;16.40;10.18;;;;;;;9.49;62.43;101457.44;5009333;28;20038;-75
2022/03/22 07:53:15;;;;;;;16.00;10.00;;;;;;;9.73;60.12;101459.88;5031436;28;20075;-75
2022/03/22 07:55:41;;;;;;;17.13;9.93;;;;;;;9.87;59.81;101460.25;5004086;28;20030;-75
2022/03/22 07:58:07;;;;;;;15.40;9.82;;;;;;;9.97;59.86;101451.97;5023735;28;20108;-75
2022/03/22 08:00:35;;;;;;;19.88;9.40;;;;;;;10.08;58.91;101445.38;5028196;28;20034;-75
2022/03/22 08:03:03;;;;;;;15.00;9.63;;;;;;;10.16;57.90;101457.94;5017954;28;20030;-75
2022/03/22 08:05:29;;;;;;;14.88;9.25;;;;;;;10.24;57.46;101449.09;5015467;28;20026;-75
2022/03/22 08:07:54;;;;;;;14.40;9.68;;;;;;;10.34;57.27;101442.81;5056440;28;20045;-74
2022/03/22 08:10:21;;;;;;;16.70;9.73;;;;;;;10.39;57.40;101459.47;5034356;28;20505;-74
2022/03/22 08:12:46;;;;;;;16.48;9.05;;;;;;;10.44;56.45;101457.56;5034688;28;20036;-75
2022/03/22 08:15:13;;;;;;;16.08;8.90;;;;;;;10.52;55.34;101450.66;5040900;28;20239;-75
2022/03/22 08:17:39;;;;;;;14.63;8.95;;;;;;;10.58;56.01;101459.84;5060352;28;20029;-74
2022/03/22 08:20:07;;;;;;;19.63;9.27;;;;;;;10.64;56.45;101465.19;5060344;28;20029;-75
2022/03/22 08:22:33;;;;;;;20.63;9.00;;;;;;;10.64;55.79;101459.63;5042280;28;20033;-74
2022/03/22 08:24:59;;;;;;;15.32;9.05;;;;;;;10.72;55.14;101464.63;5022606;28;20033;-75
2022/03/22 08:27:24;;;;;;;14.82;8.98;;;;;;;10.83;54.20;101470.22;5037379;28;20033;-75
2022/03/22 08:29:51;;;;;;;16.50;9.77;;;;;;;10.82;54.32;101461.06;5029364;28;20037;-74
2022/03/22 08:32:16;;;;;;;17.45;9.68;;;;;;;10.86;54.10;101464.13;5021974;28;20029;-74
2022/03/22 08:34:42;;;;;;;16.80;9.15;;;;;;;10.92;52.92;101461.09;5025917;28;20408;-74
2022/03/22 08:37:08;;;;;;;14.77;8.57;;;;;;;11.01;53.96;101469.75;5044896;28;20033;-75
2022/03/22 08:39:33;;;;;;;14.32;8.73;;;;;;;11.11;54.23;101468.91;5044344;28;20035;-76
2022/03/22 08:41:59;;;;;;;14.90;8.13;;;;;;;11.16;52.36;101460.59;5042162;28;20025;-75
2022/03/22 08:44:24;;;;;;;10.63;7.75;;;;;;;11.31;52.82;101463.44;5025760;28;20037;-75
2022/03/22 08:46:51;;;;;;;12.60;7.95;;;;;;;11.39;52.30;101462.88;5039286;28;20029;-75
2022/03/22 08:49:17;;;;;;;16.77;7.95;;;;;;;11.56;51.59;101467.31;5040684;28;20039;-77
2022/03/22 08:51:43;;;;;;;15.73;8.15;;;;;;;11.73;51.05;101467.91;5024528;28;20474;-76
2022/03/22 08:54:09;;;;;;;15.90;7.97;;;;;;;11.86;50.99;101469.28;5021995;28;20140;-76
2022/03/22 08:56:35;;;;;;;13.13;8.30;;;;;;;12.02;50.59;101461.78;5019488;28;20060;-77
2022/03/22 08:59:00;;;;;;;11.02;7.40;;;;;;;12.10;51.18;101465.94;5026155;28;20045;-77
2022/03/22 09:01:27;;;;;;;13.13;7.68;;;;;;;12.21;51.08;101459.25;5021929;28;20107;-77
2022/03/22 09:06:38;;;;;;;10.88;7.70;;;;;;;12.47;49.95;101463.59;5040843;28;20025;-77
2022/03/22 09:09:04;;;;;;;11.98;7.60;;;;;;;12.59;49.19;101456.88;5000469;28;20034;-77
2022/03/22 09:11:30;;;;;;;13.75;8.23;;;;;;;12.71;50.17;101461.03;5021148;28;20096;-77
2022/03/22 09:13:55;;;;;;;13.18;7.95;;;;;;;12.80;49.03;101460.44;5005694;28;20029;-79
2022/03/22 09:16:21;;;;;;;15.50;7.38;;;;;;;12.93;48.08;101455.06;5024355;28;20040;-79
2022/03/22 09:18:47;;;;;;;14.70;7.80;;;;;;;12.97;48.39;101460.91;5025148;28;20029;-77
2022/03/22 09:21:13;;;;;;;13.07;7.50;;;;;;;13.01;48.78;101458.34;5025049;28;20037;-77
2022/03/22 09:23:40;;;;;;;13.50;7.53;;;;;;;13.05;47.95;101463.06;5024791;28;20028;-79
2022/03/22 09:26:06;;;;;;;14.95;7.70;;;;;;;13.10;46.94;101467.81;5037867;28;20033;-78
2022/03/22 09:28:31;;;;;;;12.35;6.80;;;;;;;13.15;47.79;101460.25;5007764;28;20032;-78
2022/03/22 09:30:57;;;;;;;13.38;7.75;;;;;;;13.18;48.19;101450.47;5027636;28;20025;-76
2022/03/22 09:33:22;;;;;;;18.60;8.00;;;;;;;13.23;48.52;101446.78;5007697;28;20025;-77
2022/03/22 09:35:48;;;;;;;14.65;7.55;;;;;;;13.34;48.62;101443.66;5021213;28;20048;-77
2022/03/22 09:38:14;;;;;;;14.57;7.70;;;;;;;13.37;49.33;101437.53;5005352;28;20104;-78
2022/03/22 09:40:40;;;;;;;14.25;7.53;;;;;;;13.59;48.27;101428.69;5020574;28;20079;-77
2022/03/22 09:43:06;;;;;;;15.57;8.32;;;;;;;13.70;49.79;101435.00;5031037;28;20478;-78
2022/03/22 09:45:32;;;;;;;12.50;7.28;;;;;;;13.80;49.50;101439.69;5005679;28;20095;-78
2022/03/22 09:47:59;;;;;;;12.63;7.10;;;;;;;13.92;49.59;101445.69;5006171;28;20029;-78
2022/03/22 09:53:12;;;;;;;14.90;7.55;;;;;;;14.19;49.08;101441.53;5024473;28;20036;-78
2022/03/22 09:55:38;;;;;;;14.48;7.43;;;;;;;14.27;48.79;101435.31;5028789;28;20132;-79
2022/03/22 09:58:03;;;;;;;14.30;7.55;;;;;;;14.37;47.15;101432.38;5008966;28;20030;-79
2022/03/22 10:00:29;;;;;;;12.25;7.65;;;;;;;14.43;47.38;101420.03;5028739;28;20037;-79
2022/03/22 10:02:54;;;;;;;14.32;7.93;;;;;;;14.46;46.75;101436.19;5023816;28;20490;-78
2022/03/22 10:05:22;;;;;;;14.75;7.65;;;;;;;14.50;46.67;101426.06;5017690;28;20034;-79
2022/03/22 10:08:00;;;;;;;14.25;8.25;;;;;;;14.53;46.05;101428.28;5000538;28;20116;-79
2022/03/22 10:10:27;;;;;;;12.85;7.45;;;;;;;14.56;47.07;101432.47;5008915;28;20395;-75
2022/03/22 10:13:00;;;;;;;13.93;7.85;;;;;;;14.55;48.64;101433.59;5007145;28;20121;-78
2022/03/22 10:15:30;;;;;;;17.45;8.07;;;;;;;14.65;47.21;101427.03;4988543;28;20045;-78
2022/03/22 10:18:06;;;;;;;13.90;7.22;;;;;;;14.69;47.82;101423.34;5018123;28;20022;-78
2022/03/22 10:20:33;;;;;;;13.90;8.05;;;;;;;14.77;47.97;101435.84;5015481;28;20084;-78
2022/03/22 10:22:59;;;;;;;13.35;7.57;;;;;;;14.85;47.19;101425.94;5016744;28;20033;-79
2022/03/22 10:25:24;;;;;;;14.40;7.97;;;;;;;14.83;46.78;101423.44;5006372;28;20029;-78
2022/03/22 10:27:57;;;;;;;13.73;7.55;;;;;;;14.90;47.21;101425.88;5019080;28;20051;-78
2022/03/22 10:30:22;;;;;;;11.00;6.78;;;;;;;14.94;47.75;101427.75;5019149;28;20029;-79
2022/03/22 10:32:51;;;;;;;15.40;7.88;;;;;;;15.02;46.80;101419.84;5035810;28;20033;-80
2022/03/22 10:35:21;;;;;;;13.10;7.00;;;;;;;15.14;46.12;101429.44;5016671;28;20430;-80
2022/03/22 10:37:48;;;;;;;15.05;7.65;;;;;;;15.22;46.53;101421.50;5048081;28;20028;-78
2022/03/22 10:40:29;;;;;;;13.32;7.95;;;;;;;15.26;46.51;101420.56;5007589;28;20029;-79
2022/03/22 10:43:00;;;;;;;14.93;7.72;;;;;;;15.35;46.79;101423.50;5038854;28;20052;-78
2022/03/22 10:45:29;;;;;;;13.80;7.20;;;;;;;15.47;45.97;101409.06;5015288;28;20505;-78
2022/03/22 10:47:57;;;;;;;12.77;7.55;;;;;;;15.57;45.65;101420.06;5003735;28;20044;-79
2022/03/22 10:50:23;;;;;;;15.30;7.47;;;;;;;15.70;45.20;101413.72;4998961;28;20036;-78
2022/03/22 10:52:52;;;;;;;10.35;6.93;;;;;;;15.74;45.44;101408.34;4992063;28;20060;-79
2022/03/22 10:55:21;;;;;;;12.10;7.60;;;;;;;15.80;45.64;101402.34;5040519;28;20030;-79
2022/03/22 10:57:57;;;;;;;12.02;7.55;;;;;;;15.86;45.90;101403.91;4995931;28;20139;-78
2022/03/22 11:00:23;;;;;;;15.80;7.47;;;;;;;15.82;46.35;101404.84;5018992;28;20069;-79
2022/03/22 11:02:51;;;;;;;14.90;7.15;;;;;;;15.89;45.88;101405.28;5001906;28;20052;-78
2022/03/22 11:05:19;;;;;;;11.85;7.43;;;;;;;15.92;45.34;101399.06;5002681;28;20029;-79
2022/03/22 11:07:46;;;;;;;11.07;7.25;;;;;;;15.99;45.80;101390.22;4986491;28;20061;-78
2022/03/22 11:10:11;;;;;;;14.82;7.60;;;;;;;16.07;46.02;101390.38;4995643;28;20422;-79
2022/03/22 11:12:37;;;;;;;14.23;7.82;;;;;;;16.12;44.84;101383.81;5002915;28;20022;-81
2022/03/22 11:15:04;;;;;;;12.80;7.43;;;;;;;16.15;44.78;101388.78;5002640;28;20041;-79
2022/03/22 11:17:34;;;;;;;16.50;7.38;;;;;;;16.19;45.26;101378.63;4994884;28;20557;-79
2022/03/22 11:20:00;;;;;;;10.98;6.93;;;;;;;16.31;44.56;101384.53;5001152;28;20494;-78
2022/03/22 11:22:26;;;;;;;14.52;7.15;;;;;;;16.38;44.00;101369.28;4976891;28;20038;-78
2022/03/22 11:24:52;;;;;;;18.52;7.68;;;;;;;16.47;43.75;101375.84;5000110;28;20037;-78
2022/03/22 11:27:27;;;;;;;12.43;7.00;;;;;;;16.50;43.81;101380.81;4991206;28;20033;-78
2022/03/22 11:29:53;;;;;;;13.90;7.32;;;;;;;16.62;43.88;101375.50;4995891;28;20034;-80
2022/03/22 11:35:02;;;;;;;14.15;7.20;;;;;;;16.66;45.02;101373.72;4997650;28;20595;-78
2022/03/22 11:37:32;;;;;;;15.77;7.75;;;;;;;16.61;44.15;101373.84;5000125;28;20033;-81
2022/03/22 11:42:56;;;;;;;14.85;7.93;;;;;;;16.67;43.30;101375.38;4984930;28;20025;-79
2022/03/22 11:45:22;;;;;;;16.10;7.68;;;;;;;16.75;43.00;101362.59;4997280;28;20496;-79
2022/03/22 11:47:49;;;;;;;16.50;7.40;;;;;;;16.83;43.14;101369.47;5007127;28;20103;-79
2022/03/22 11:50:17;;;;;;;12.25;7.38;;;;;;;16.89;43.49;101368.19;5014373;28;20026;-78
2022/03/22 11:52:43;;;;;;;13.23;7.25;;;;;;;16.93;43.51;101377.63;5003426;28;20029;-79